createdAt,value
2023-05-08T00:02:09.645Z,100.00
2023-05-08T00:04:36.334Z,100.00
2023-05-08T00:07:02.801Z,100.00
2023-05-08T00:09:29.311Z,100.00
2023-05-08T00:11:55.761Z,100.00
2023-05-08T00:14:22.228Z,100.00
2023-05-08T00:16:48.848Z,100.00
2023-05-08T00:19:15.345Z,100.00
2023-05-08T00:21:42.160Z,100.00
2023-05-08T00:24:08.761Z,100.00
2023-05-08T00:26:35.253Z,100.00
2023-05-08T00:29:01.730Z,100.00
2023-05-08T00:31:28.231Z,100.00
2023-05-08T00:33:54.718Z,100.00
2023-05-08T00:36:21.188Z,100.00
2023-05-08T00:38:47.893Z,100.00
2023-05-08T00:41:14.431Z,100.00
2023-05-08T00:43:40.947Z,100.00
2023-05-08T00:46:09.815Z,100.00
2023-05-08T00:48:36.750Z,100.00
2023-05-08T00:51:06.497Z,100.00
2023-05-08T00:53:35.957Z,100.00
2023-05-08T00:56:02.595Z,100.00
2023-05-08T00:58:30.225Z,100.00
2023-05-08T01:00:57.517Z,100.00
2023-05-08T01:03:25.456Z,100.00
2023-05-08T01:05:52.072Z,100.00
2023-05-08T01:08:18.527Z,100.00
2023-05-08T01:10:57.083Z,100.00
2023-05-08T01:13:46.753Z,100.00
2023-05-08T01:16:17.182Z,100.00
2023-05-08T01:18:56.880Z,100.00
2023-05-08T01:21:46.174Z,100.00
2023-05-08T01:24:25.777Z,100.00
2023-05-08T01:27:11.072Z,100.00
2023-05-08T01:30:05.835Z,100.00
2023-05-08T01:32:41.312Z,100.00
2023-05-08T01:35:10.717Z,100.00
2023-05-08T01:37:50.052Z,100.00
2023-05-08T01:40:34.265Z,100.00
2023-05-08T01:43:14.433Z,100.00
2023-05-08T01:45:46.860Z,100.00
2023-05-08T01:48:38.647Z,100.00
2023-05-08T01:51:14.281Z,100.00
2023-05-08T01:53:49.731Z,100.00
2023-05-08T01:56:22.212Z,100.00
2023-05-08T01:58:54.246Z,100.00
2023-05-08T02:01:24.341Z,100.00
2023-05-08T02:03:53.004Z,100.00
2023-05-08T02:06:22.000Z,100.00
2023-05-08T02:08:50.250Z,100.00
2023-05-08T02:11:18.193Z,100.00
2023-05-08T02:13:47.879Z,100.00
2023-05-08T02:16:15.234Z,100.00
2023-05-08T02:18:51.055Z,100.00
2023-05-08T02:21:18.714Z,100.00
2023-05-08T02:23:47.002Z,100.00
2023-05-08T02:26:16.095Z,100.00
2023-05-08T02:28:43.319Z,100.00
2023-05-08T02:31:12.077Z,100.00
2023-05-08T02:33:41.978Z,100.00
2023-05-08T02:36:10.840Z,100.00
2023-05-08T02:38:39.880Z,100.00
2023-05-08T02:41:07.883Z,100.00
2023-05-08T02:43:34.996Z,100.00
2023-05-08T02:46:14.037Z,100.00
2023-05-08T02:48:57.117Z,100.00
2023-05-08T02:51:43.777Z,100.00
2023-05-08T02:54:14.488Z,100.00
2023-05-08T02:56:53.120Z,100.00
2023-05-08T02:59:25.886Z,100.00
2023-05-08T03:01:59.814Z,100.00
2023-05-08T03:04:32.232Z,100.00
2023-05-08T03:06:59.735Z,100.00
2023-05-08T03:09:32.264Z,100.00
2023-05-08T03:12:06.525Z,100.00
2023-05-08T03:14:39.330Z,100.00
2023-05-08T03:17:09.116Z,100.00
2023-05-08T03:19:39.243Z,100.00
2023-05-08T03:22:07.522Z,100.00
2023-05-08T03:24:38.609Z,100.00
2023-05-08T03:27:07.414Z,100.00
2023-05-08T03:29:34.403Z,100.00
2023-05-08T03:32:02.378Z,100.00
2023-05-08T03:34:30.801Z,100.00
2023-05-08T03:36:57.426Z,100.00
2023-05-08T03:39:25.366Z,100.00
2023-05-08T03:41:52.324Z,100.00
2023-05-08T03:44:19.889Z,100.00
2023-05-08T03:46:48.087Z,100.00
2023-05-08T03:49:14.945Z,100.00
2023-05-08T03:51:42.596Z,100.00
2023-05-08T03:54:09.081Z,100.00
2023-05-08T03:56:35.637Z,100.00
2023-05-08T03:59:21.076Z,100.00
2023-05-08T04:01:59.902Z,100.00
2023-05-08T04:04:40.896Z,100.00
2023-05-08T04:07:12.612Z,100.00
2023-05-08T04:09:51.598Z,100.00
2023-05-08T04:12:21.772Z,100.00
2023-05-08T04:14:54.788Z,100.00
2023-05-08T04:17:47.499Z,100.00
2023-05-08T04:20:18.321Z,100.00
2023-05-08T04:22:46.642Z,100.00
2023-05-08T04:25:15.339Z,100.00
2023-05-08T04:27:43.784Z,100.00
2023-05-08T04:30:10.974Z,100.00
2023-05-08T04:32:40.550Z,100.00
2023-05-08T04:35:08.781Z,100.00
2023-05-08T04:37:35.543Z,100.00
2023-05-08T04:40:02.681Z,100.00
2023-05-08T04:42:29.574Z,100.00
2023-05-08T04:44:56.463Z,100.00
2023-05-08T04:47:24.256Z,100.00
2023-05-08T04:49:51.255Z,100.00
2023-05-08T04:52:17.826Z,100.00
2023-05-08T04:54:44.346Z,100.00
2023-05-08T04:57:10.948Z,100.00
2023-05-08T04:59:37.578Z,100.00
2023-05-08T05:02:06.740Z,100.00
2023-05-08T05:04:33.733Z,100.00
2023-05-08T05:07:00.276Z,100.00
2023-05-08T05:09:26.804Z,100.00
2023-05-08T05:11:53.259Z,100.00
2023-05-08T05:14:19.952Z,100.00
2023-05-08T05:16:47.120Z,100.00
2023-05-08T05:19:13.895Z,100.00
2023-05-08T05:21:40.559Z,100.00
2023-05-08T05:24:07.321Z,100.00
2023-05-08T05:26:35.752Z,100.00
2023-05-08T05:29:03.529Z,100.00
2023-05-08T05:31:30.321Z,100.00
2023-05-08T05:33:56.870Z,100.00
2023-05-08T05:36:23.449Z,100.00
2023-05-08T05:38:50.526Z,100.00
2023-05-08T05:41:17.027Z,100.00
2023-05-08T05:43:43.606Z,100.00
2023-05-08T05:46:11.560Z,100.00
2023-05-08T05:48:37.985Z,100.00
2023-05-08T05:51:04.673Z,100.00
2023-05-08T05:53:31.199Z,100.00
2023-05-08T05:55:57.667Z,100.00
2023-05-08T05:58:24.165Z,100.00
2023-05-08T06:00:51.405Z,100.00
2023-05-08T06:03:18.221Z,100.00
2023-05-08T06:05:46.988Z,100.00
2023-05-08T06:08:13.592Z,100.00
2023-05-08T06:10:40.120Z,100.00
2023-05-08T06:13:06.685Z,100.00
2023-05-08T06:15:34.010Z,100.00
2023-05-08T06:18:00.802Z,100.00
2023-05-08T06:20:27.400Z,100.00
2023-05-08T06:22:54.076Z,100.00
2023-05-08T06:25:20.590Z,100.00
2023-05-08T06:27:47.062Z,100.00
2023-05-08T06:30:13.758Z,100.00
2023-05-08T06:32:40.427Z,100.00
2023-05-08T06:35:07.703Z,100.00
2023-05-08T06:37:34.175Z,100.00
2023-05-08T06:40:11.744Z,100.00
2023-05-08T06:42:39.620Z,100.00
2023-05-08T06:45:07.461Z,100.00
2023-05-08T06:47:34.008Z,100.00
2023-05-08T06:50:01.106Z,100.00
2023-05-08T06:52:27.611Z,100.00
2023-05-08T06:54:54.065Z,100.00
2023-05-08T06:57:20.688Z,100.00
2023-05-08T06:59:47.211Z,100.00
2023-05-08T07:02:13.724Z,100.00
2023-05-08T07:04:40.331Z,100.00
2023-05-08T07:07:07.739Z,100.00
2023-05-08T07:09:34.348Z,100.00
2023-05-08T07:12:00.942Z,100.00
2023-05-08T07:14:27.610Z,100.00
2023-05-08T07:16:54.343Z,100.00
2023-05-08T07:19:22.509Z,100.00
2023-05-08T07:21:49.310Z,100.00
2023-05-08T07:24:15.819Z,100.00
2023-05-08T07:26:42.666Z,100.00
2023-05-08T07:29:10.304Z,100.00
2023-05-08T07:31:39.424Z,100.00
2023-05-08T07:34:07.276Z,100.00
2023-05-08T07:36:34.013Z,100.00
2023-05-08T07:39:00.496Z,100.00
2023-05-08T07:41:27.118Z,100.00
2023-05-08T07:43:53.899Z,100.00
2023-05-08T07:46:20.765Z,100.00
2023-05-08T07:48:47.447Z,100.00
2023-05-08T07:51:14.697Z,100.00
2023-05-08T07:53:41.285Z,100.00
2023-05-08T07:56:07.985Z,100.00
2023-05-08T07:58:35.131Z,100.00
2023-05-08T08:01:02.230Z,100.00
2023-05-08T08:03:29.093Z,100.00
2023-05-08T08:05:55.716Z,100.00
2023-05-08T08:08:22.407Z,100.00
2023-05-08T08:10:50.022Z,100.00
2023-05-08T08:13:17.583Z,100.00
2023-05-08T08:15:44.267Z,100.00
2023-05-08T08:18:10.882Z,100.00
2023-05-08T08:20:37.700Z,100.00
2023-05-08T08:23:04.332Z,100.00
2023-05-08T08:25:30.974Z,100.00
2023-05-08T08:27:58.455Z,100.00
2023-05-08T08:30:25.080Z,100.00
2023-05-08T08:32:51.657Z,100.00
2023-05-08T08:35:18.558Z,100.00
2023-05-08T08:37:45.417Z,100.00
2023-05-08T08:40:12.252Z,100.00
2023-05-08T08:42:38.943Z,100.00
2023-05-08T08:45:06.849Z,100.00
2023-05-08T08:47:37.780Z,100.00
2023-05-08T08:50:05.417Z,100.00
2023-05-08T08:52:37.759Z,100.00
2023-05-08T08:55:08.142Z,100.00
2023-05-08T08:57:39.606Z,100.00
2023-05-08T09:00:09.618Z,100.00
2023-05-08T09:02:36.616Z,100.00
2023-05-08T09:05:03.665Z,100.00
2023-05-08T09:07:30.497Z,100.00
2023-05-08T09:09:57.443Z,100.00
2023-05-08T09:12:24.019Z,100.00
2023-05-08T09:14:51.102Z,100.00
2023-05-08T09:17:17.801Z,100.00
2023-05-08T09:19:45.126Z,98.17
2023-05-08T09:22:11.993Z,99.29
2023-05-08T09:24:57.201Z,98.02
2023-05-08T09:27:25.377Z,97.09
2023-05-08T09:30:11.805Z,96.40
2023-05-08T09:32:40.829Z,95.06
2023-05-08T09:35:08.912Z,95.90
2023-05-08T09:37:39.342Z,92.99
2023-05-08T09:40:21.159Z,93.61
2023-05-08T09:42:49.096Z,94.51
2023-05-08T09:45:29.049Z,94.64
2023-05-08T09:47:55.796Z,94.35
2023-05-08T09:50:22.600Z,92.62
2023-05-08T09:52:50.781Z,93.38
2023-05-08T09:55:17.783Z,92.48
2023-05-08T09:58:04.910Z,94.44
2023-05-08T10:00:39.652Z,93.80
2023-05-08T10:03:06.256Z,94.11
2023-05-08T10:05:35.884Z,94.80
2023-05-08T10:08:26.544Z,93.68
2023-05-08T10:10:53.336Z,92.72
2023-05-08T10:13:19.910Z,93.01
2023-05-08T10:15:54.463Z,93.60
2023-05-08T10:18:22.334Z,93.34
2023-05-08T10:20:49.581Z,93.69
2023-05-08T10:23:17.649Z,92.29
2023-05-08T10:25:54.741Z,91.16
2023-05-08T10:28:37.066Z,91.26
2023-05-08T10:31:05.613Z,90.23
2023-05-08T10:33:34.743Z,91.32
2023-05-08T10:36:02.016Z,88.45
2023-05-08T10:38:31.184Z,89.88
2023-05-08T10:41:01.214Z,92.16
2023-05-08T10:43:29.866Z,90.98
2023-05-08T10:45:58.463Z,89.80
2023-05-08T10:48:30.762Z,89.35
2023-05-08T10:51:10.590Z,90.40
2023-05-08T10:53:43.921Z,90.92
2023-05-08T10:56:10.737Z,87.74
2023-05-08T10:58:39.348Z,87.73
2023-05-08T11:01:09.013Z,87.71
2023-05-08T11:03:46.574Z,84.84
2023-05-08T11:06:14.106Z,85.06
2023-05-08T11:08:46.947Z,87.07
2023-05-08T11:11:29.619Z,84.68
2023-05-08T11:14:09.721Z,85.97
2023-05-08T11:16:54.176Z,87.97
2023-05-08T11:19:22.093Z,86.69
2023-05-08T11:22:19.819Z,86.72
2023-05-08T11:24:55.784Z,86.63
2023-05-08T11:27:48.970Z,87.27
2023-05-08T11:30:35.082Z,87.97
2023-05-08T11:33:05.000Z,88.08
2023-05-08T11:35:57.528Z,87.71
2023-05-08T11:38:31.653Z,85.95
2023-05-08T11:41:00.923Z,85.36
2023-05-08T11:43:33.553Z,83.76
2023-05-08T11:46:04.605Z,83.40
2023-05-08T11:48:32.604Z,81.21
2023-05-08T11:51:00.001Z,82.45
2023-05-08T11:53:27.025Z,82.54
2023-05-08T11:55:54.784Z,83.39
2023-05-08T11:58:21.856Z,83.10
2023-05-08T12:00:49.604Z,84.66
2023-05-08T12:03:19.145Z,84.32
2023-05-08T12:05:46.633Z,84.65
2023-05-08T12:08:14.370Z,84.50
2023-05-08T12:10:47.220Z,84.62
2023-05-08T12:13:21.164Z,83.39
2023-05-08T12:15:50.049Z,85.41
2023-05-08T12:18:17.300Z,84.91
2023-05-08T12:20:44.331Z,83.63
2023-05-08T12:23:11.527Z,81.36
2023-05-08T12:25:39.146Z,79.70
2023-05-08T12:28:12.145Z,80.39
2023-05-08T12:30:38.853Z,77.95
2023-05-08T12:33:05.949Z,78.48
2023-05-08T12:35:32.993Z,79.84
2023-05-08T12:38:03.599Z,80.18
2023-05-08T12:40:42.669Z,80.99
2023-05-08T12:43:09.876Z,76.27
2023-05-08T12:45:41.259Z,76.05
2023-05-08T12:48:17.945Z,75.25
2023-05-08T12:50:45.978Z,75.38
2023-05-08T12:53:14.740Z,74.56
2023-05-08T12:55:53.536Z,76.79
2023-05-08T12:58:24.138Z,74.97
2023-05-08T13:00:52.087Z,72.50
2023-05-08T13:03:26.693Z,74.90
2023-05-08T13:05:55.295Z,73.28
2023-05-08T13:08:30.296Z,74.21
2023-05-08T13:10:56.810Z,73.10
2023-05-08T13:13:26.001Z,74.92
2023-05-08T13:15:54.119Z,75.20
2023-05-08T13:18:23.814Z,74.13
2023-05-08T13:20:50.267Z,75.39
2023-05-08T13:23:16.789Z,75.83
2023-05-08T13:25:43.349Z,76.16
2023-05-08T13:28:10.229Z,75.94
2023-05-08T13:30:37.459Z,76.44
2023-05-08T13:33:04.951Z,74.66
2023-05-08T13:35:32.897Z,75.82
2023-05-08T13:37:59.712Z,73.13
2023-05-08T13:40:26.422Z,72.35
2023-05-08T13:42:54.134Z,73.87
2023-05-08T13:45:20.671Z,73.24
2023-05-08T13:47:48.938Z,73.80
2023-05-08T13:50:18.351Z,73.54
2023-05-08T13:52:45.029Z,72.23
2023-05-08T13:55:12.859Z,70.86
2023-05-08T13:57:40.097Z,70.35
2023-05-08T14:00:07.825Z,68.91
2023-05-08T14:02:34.642Z,69.12
2023-05-08T14:05:01.268Z,68.14
2023-05-08T14:07:28.207Z,66.55
2023-05-08T14:09:54.729Z,68.95
2023-05-08T14:12:21.276Z,70.47
2023-05-08T14:14:47.791Z,70.93
2023-05-08T14:17:14.287Z,70.27
2023-05-08T14:19:40.858Z,71.40
2023-05-08T14:22:07.408Z,70.20
2023-05-08T14:24:33.944Z,70.19
2023-05-08T14:27:02.041Z,70.10
2023-05-08T14:29:28.870Z,70.69
2023-05-08T14:31:55.530Z,71.55
2023-05-08T14:34:22.177Z,72.47
2023-05-08T14:36:48.667Z,71.03
2023-05-08T14:39:15.115Z,70.43
2023-05-08T14:41:48.123Z,70.56
2023-05-08T14:44:26.136Z,71.00
2023-05-08T14:46:52.681Z,69.30
2023-05-08T14:49:25.367Z,68.78
2023-05-08T14:51:59.840Z,71.26
2023-05-08T14:54:26.460Z,71.01
2023-05-08T14:56:53.062Z,70.14
2023-05-08T14:59:19.525Z,70.57
2023-05-08T15:01:46.086Z,70.28
2023-05-08T15:04:12.734Z,69.75
2023-05-08T15:06:40.384Z,69.54
2023-05-08T15:09:08.804Z,70.47
2023-05-08T15:11:36.621Z,70.72
2023-05-08T15:14:04.188Z,68.88
2023-05-08T15:16:30.915Z,70.64
2023-05-08T15:18:57.466Z,68.73
2023-05-08T15:21:26.641Z,69.38
2023-05-08T15:23:54.900Z,69.46
2023-05-08T15:26:22.122Z,70.40
2023-05-08T15:28:48.705Z,71.39
2023-05-08T15:31:15.555Z,70.01
2023-05-08T15:33:44.817Z,69.91
2023-05-08T15:36:13.437Z,70.15
2023-05-08T15:38:43.173Z,71.25
2023-05-08T15:41:14.640Z,70.66
2023-05-08T15:43:42.273Z,70.56
2023-05-08T15:46:08.859Z,69.73
2023-05-08T15:48:35.595Z,71.16
2023-05-08T15:51:02.090Z,70.96
2023-05-08T15:53:28.702Z,71.32
2023-05-08T15:55:56.850Z,69.91
2023-05-08T15:58:23.461Z,71.04
2023-05-08T16:00:50.139Z,72.11
2023-05-08T16:03:17.077Z,72.14
2023-05-08T16:05:43.895Z,72.28
2023-05-08T16:08:12.849Z,73.11
2023-05-08T16:10:40.713Z,73.58
2023-05-08T16:13:07.793Z,74.72
2023-05-08T16:15:34.370Z,74.66
2023-05-08T16:18:01.027Z,74.66
2023-05-08T16:20:27.571Z,74.35
2023-05-08T16:22:55.862Z,74.81
2023-05-08T16:25:22.655Z,74.58
2023-05-08T16:27:49.481Z,75.83
2023-05-08T16:30:16.539Z,75.30
2023-05-08T16:32:44.605Z,76.33
2023-05-08T16:35:11.805Z,76.05
2023-05-08T16:37:38.536Z,77.39
2023-05-08T16:40:06.961Z,77.61
2023-05-08T16:42:33.454Z,78.09
2023-05-08T16:44:59.968Z,78.37
2023-05-08T16:47:26.527Z,78.74
2023-05-08T16:49:53.847Z,79.02
2023-05-08T16:52:20.404Z,79.45
2023-05-08T16:54:46.942Z,80.44
2023-05-08T16:57:13.466Z,80.29
2023-05-08T16:59:41.349Z,79.63
2023-05-08T17:02:08.273Z,78.93
2023-05-08T17:04:34.892Z,79.13
2023-05-08T17:07:01.319Z,78.47
2023-05-08T17:09:27.943Z,79.29
2023-05-08T17:11:54.397Z,79.33
2023-05-08T17:14:20.973Z,77.75
2023-05-08T17:16:47.668Z,79.30
2023-05-08T17:19:14.168Z,78.00
2023-05-08T17:21:40.727Z,78.15
2023-05-08T17:24:07.494Z,78.68
2023-05-08T17:26:34.138Z,80.19
2023-05-08T17:29:00.729Z,80.36
2023-05-08T17:31:27.313Z,80.18
2023-05-08T17:33:53.908Z,80.93
2023-05-08T17:36:20.619Z,80.05
2023-05-08T17:38:47.396Z,81.54
2023-05-08T17:41:14.127Z,81.33
2023-05-08T17:43:40.688Z,81.31
2023-05-08T17:46:07.599Z,82.14
2023-05-08T17:48:34.821Z,82.75
2023-05-08T17:51:02.756Z,82.03
2023-05-08T17:53:32.820Z,81.78
2023-05-08T17:55:59.298Z,82.57
2023-05-08T17:58:25.954Z,82.95
2023-05-08T18:00:53.952Z,82.33
2023-05-08T18:03:20.747Z,83.05
2023-05-08T18:05:47.474Z,83.18
2023-05-08T18:08:13.956Z,84.37
2023-05-08T18:10:41.014Z,83.55
2023-05-08T18:13:07.849Z,83.80
2023-05-08T18:15:39.055Z,83.86
2023-05-08T18:18:05.702Z,85.03
2023-05-08T18:20:33.400Z,84.64
2023-05-08T18:22:59.878Z,85.60
2023-05-08T18:25:26.398Z,85.30
2023-05-08T18:27:53.061Z,85.28
2023-05-08T18:30:19.521Z,85.97
2023-05-08T18:32:46.575Z,85.49
2023-05-08T18:35:13.173Z,85.93
2023-05-08T18:37:39.694Z,86.34
2023-05-08T18:40:06.786Z,87.72
2023-05-08T18:42:33.356Z,87.53
2023-05-08T18:45:00.800Z,87.34
2023-05-08T18:47:27.293Z,87.24
2023-05-08T18:49:53.906Z,87.81
2023-05-08T18:52:20.391Z,87.49
2023-05-08T18:54:46.824Z,87.99
2023-05-08T18:57:13.400Z,87.90
2023-05-08T18:59:39.864Z,87.57
2023-05-08T19:02:06.435Z,88.66
2023-05-08T19:04:32.988Z,88.31
2023-05-08T19:07:00.714Z,88.66
2023-05-08T19:09:27.240Z,88.98
2023-05-08T19:11:53.888Z,88.60
2023-05-08T19:14:20.370Z,88.87
2023-05-08T19:16:46.918Z,89.39
2023-05-08T19:19:13.457Z,89.69
2023-05-08T19:21:39.919Z,90.09
2023-05-08T19:24:06.856Z,90.84
2023-05-08T19:26:33.334Z,91.06
2023-05-08T19:28:59.853Z,91.70
2023-05-08T19:31:26.431Z,92.01
2023-05-08T19:33:52.945Z,92.53
2023-05-08T19:36:19.455Z,94.03
2023-05-08T19:38:45.954Z,95.07
2023-05-08T19:41:12.434Z,95.76
2023-05-08T19:43:38.916Z,96.61
2023-05-08T19:46:05.570Z,97.27
2023-05-08T19:48:32.123Z,97.13
2023-05-08T19:51:05.857Z,97.70
2023-05-08T19:53:32.326Z,98.18
2023-05-08T19:55:58.779Z,98.35
2023-05-08T19:58:25.438Z,99.00
2023-05-08T20:00:52.162Z,99.42
2023-05-08T20:03:19.382Z,99.60
2023-05-08T20:05:46.049Z,99.86
2023-05-08T20:08:12.587Z,100.00
2023-05-08T20:10:39.117Z,100.00
2023-05-08T20:13:05.663Z,100.00
2023-05-08T20:15:32.250Z,100.00
2023-05-08T20:17:59.824Z,100.00
2023-05-08T20:20:27.272Z,100.00
2023-05-08T20:22:53.698Z,100.00
2023-05-08T20:25:20.216Z,100.00
2023-05-08T20:27:46.753Z,100.00
2023-05-08T20:30:13.624Z,100.00
2023-05-08T20:32:40.413Z,100.00
2023-05-08T20:35:07.581Z,100.00
2023-05-08T20:37:34.065Z,100.00
2023-05-08T20:40:01.848Z,100.00
2023-05-08T20:42:28.307Z,100.00
2023-05-08T20:44:54.892Z,100.00
2023-05-08T20:47:22.609Z,100.00
2023-05-08T20:49:49.530Z,100.00
2023-05-08T20:52:16.019Z,100.00
2023-05-08T20:54:44.439Z,100.00
2023-05-08T20:57:12.954Z,100.00
2023-05-08T20:59:39.435Z,100.00
2023-05-08T21:02:06.016Z,100.00
2023-05-08T21:04:32.502Z,100.00
2023-05-08T21:06:59.140Z,100.00
2023-05-08T21:09:25.682Z,100.00
2023-05-08T21:11:52.164Z,100.00
2023-05-08T21:14:18.628Z,100.00
2023-05-08T21:16:45.174Z,100.00
2023-05-08T21:19:13.922Z,100.00
2023-05-08T21:21:40.598Z,100.00
2023-05-08T21:24:07.216Z,100.00
2023-05-08T21:26:33.658Z,100.00
2023-05-08T21:29:00.582Z,100.00
2023-05-08T21:31:28.763Z,100.00
2023-05-08T21:33:55.457Z,100.00
2023-05-08T21:36:21.975Z,100.00
2023-05-08T21:38:51.126Z,100.00
2023-05-08T21:41:17.578Z,100.00
2023-05-08T21:43:44.064Z,100.00
2023-05-08T21:46:10.719Z,100.00
2023-05-08T21:48:37.350Z,100.00
2023-05-08T21:51:05.970Z,100.00
2023-05-08T21:53:32.727Z,100.00
2023-05-08T21:55:59.791Z,100.00
2023-05-08T21:58:26.416Z,100.00
2023-05-08T22:00:52.919Z,100.00
2023-05-08T22:03:19.469Z,100.00
2023-05-08T22:05:45.957Z,100.00
2023-05-08T22:08:12.531Z,100.00
2023-05-08T22:10:39.053Z,100.00
2023-05-08T22:13:06.508Z,100.00
2023-05-08T22:15:33.558Z,100.00
2023-05-08T22:18:02.412Z,100.00
2023-05-08T22:20:29.250Z,100.00
2023-05-08T22:22:56.272Z,100.00
2023-05-08T22:25:22.807Z,100.00
2023-05-08T22:27:49.293Z,100.00
2023-05-08T22:30:15.885Z,100.00
2023-05-08T22:32:42.827Z,100.00
2023-05-08T22:35:09.497Z,100.00
2023-05-08T22:37:36.798Z,100.00
2023-05-08T22:40:03.475Z,100.00
2023-05-08T22:42:30.011Z,100.00
2023-05-08T22:44:56.897Z,100.00
2023-05-08T22:47:23.481Z,100.00
2023-05-08T22:49:50.365Z,100.00
2023-05-08T22:52:17.048Z,100.00
2023-05-08T22:54:43.517Z,100.00
2023-05-08T22:57:09.972Z,100.00
2023-05-08T22:59:36.645Z,100.00
2023-05-08T23:02:03.232Z,100.00
2023-05-08T23:04:29.729Z,100.00
2023-05-08T23:06:56.605Z,100.00
2023-05-08T23:09:23.086Z,100.00
2023-05-08T23:11:50.030Z,100.00
2023-05-08T23:14:16.567Z,100.00
2023-05-08T23:16:43.112Z,100.00
2023-05-08T23:19:10.091Z,100.00
2023-05-08T23:21:36.761Z,100.00
2023-05-08T23:24:04.602Z,100.00
2023-05-08T23:26:31.066Z,100.00
2023-05-08T23:28:57.503Z,100.00
2023-05-08T23:31:24.069Z,100.00
2023-05-08T23:33:50.634Z,100.00
2023-05-08T23:36:17.154Z,100.00
2023-05-08T23:38:43.812Z,100.00
2023-05-08T23:41:10.988Z,100.00
2023-05-08T23:43:37.564Z,100.00
2023-05-08T23:46:04.086Z,100.00
2023-05-08T23:48:30.578Z,100.00
2023-05-08T23:50:57.202Z,100.00
2023-05-08T23:53:23.887Z,100.00
2023-05-08T23:55:53.181Z,100.00
2023-05-08T23:58:19.755Z,100.00
